Stations météo

Publicité
Toulon Arsenal, France (7660): Température de l'air & dewpoint: 06.12.2018 19:00:00 - 12.12.2018 19:00:00 (CET)Toulon Arsenal, France (7660): Vitesse du vent & gusts: 06.12.2018 19:00:00 - 12.12.2018 19:00:00 (CET)Toulon Arsenal, France (7660): Direction du vent: 06.12.2018 19:00:00 - 12.12.2018 19:00:00 (CET)Toulon Arsenal, France (7660): Quantités de précipitations: 06.12.2018 19:00:00 - 12.12.2018 19:00:00 (CET)
Date & Time tt [°C] td [°C] ff [km/h] ff [knt] fx [km/h] fx [knt] dd rr [mm]
12.12.2018 19:00:00 - - - - - - - -
12.12.2018 18:00:00 9,8 7,2 4 2 8 4 WNW 0,0
12.12.2018 17:00:00 9,8 6,7 2 1 8 4 N 0,0
12.12.2018 16:00:00 13,9 6,0 4 2 11 6 S 0,0
12.12.2018 15:00:00 13,8 6,4 4 2 11 6 S 0,0
12.12.2018 14:00:00 14,8 6,1 4 2 8 4 S 0,0
12.12.2018 13:00:00 14,1 6,4 4 2 8 4 SE -
12.12.2018 12:00:00 11,5 6,2 2 1 8 4 E 0,0
12.12.2018 11:00:00 10,4 6,0 4 2 9 5 E 0,0
12.12.2018 10:00:00 8,5 6,6 2 1 5 3 E 0,0
12.12.2018 09:00:00 5,9 5,0 2 1 5 3 W 0,0
12.12.2018 08:00:00 4,7 3,8 0 0 4 2 N 0,0
12.12.2018 07:00:00 4,8 3,8 0 0 4 2 N -
12.12.2018 06:00:00 4,6 3,6 0 0 4 2 N 0,0
12.12.2018 05:00:00 4,7 3,5 2 1 5 3 NW 0,0
12.12.2018 04:00:00 4,8 3,5 0 0 9 5 N 0,0
12.12.2018 03:00:00 4,8 3,3 0 0 5 3 N 0,0
12.12.2018 02:00:00 5,2 3,5 2 1 5 3 WSW 0,0
12.12.2018 01:00:00 5,5 3,3 2 1 4 2 W -
12.12.2018 00:00:00 5,8 3,1 0 0 4 2 N 0,0
11.12.2018 23:00:00 6,7 3,1 0 0 13 7 N 0,0
11.12.2018 22:00:00 8,0 3,5 8 4 15 8 N 0,0
11.12.2018 21:00:00 9,7 3,2 8 4 16 9 N 0,0
11.12.2018 20:00:00 9,8 3,3 9 5 15 8 N 0,0
11.12.2018 19:00:00 10,0 4,4 9 5 15 8 N -
11.12.2018 18:00:00 11,1 5,2 9 5 15 8 N 0,0
11.12.2018 17:00:00 12,1 5,5 2 1 13 7 N 0,0
11.12.2018 16:00:00 15,6 4,3 4 2 15 8 N 0,0
11.12.2018 15:00:00 15,7 3,8 5 3 18 10 ENE 0,0
11.12.2018 14:00:00 16,4 3,8 4 2 11 6 S 0,0
11.12.2018 13:00:00 16,2 2,2 4 2 8 4 S -
11.12.2018 12:00:00 15,1 0,9 4 2 11 6 SSW 0,0
11.12.2018 11:00:00 13,4 0,4 8 4 15 8 SW 0,0
11.12.2018 10:00:00 11,6 0,1 8 4 18 10 WSW 0,0
11.12.2018 09:00:00 9,0 0,4 9 5 18 10 W 0,0
11.12.2018 08:00:00 8,8 0,0 11 6 26 14 WSW 0,0
11.12.2018 07:00:00 8,9 -1,0 9 5 26 14 WNW -
11.12.2018 06:00:00 9,2 -0,7 18 10 39 21 WNW 0,0
11.12.2018 05:00:00 10,5 -1,6 9 5 22 12 SW 0,0
11.12.2018 04:00:00 9,5 0,1 9 5 24 13 W 0,0
11.12.2018 03:00:00 10,3 -0,8 11 6 21 11 W 0,0
11.12.2018 02:00:00 10,4 -0,7 9 5 28 15 SW 0,0
11.12.2018 01:00:00 10,0 0,6 16 9 31 17 WSW -
11.12.2018 00:00:00 10,1 0,1 15 8 31 17 SSW 0,0
10.12.2018 23:00:00 10,3 0,3 15 8 35 19 WNW 0,0
10.12.2018 22:00:00 10,6 0,9 8 4 29 16 SSW 0,0
10.12.2018 21:00:00 10,6 0,6 15 8 50 27 WNW 0,0
10.12.2018 20:00:00 11,0 1,0 28 15 70 38 W 0,0
10.12.2018 19:00:00 11,4 2,1 31 17 55 30 W -
10.12.2018 18:00:00 12,0 1,3 18 10 44 24 W 0,0
10.12.2018 17:00:00 12,8 0,8 24 13 48 26 WNW 0,0
10.12.2018 16:00:00 14,1 0,7 22 12 46 25 WNW 0,0
10.12.2018 15:00:00 14,9 0,7 24 13 46 25 WNW 0,0
10.12.2018 14:00:00 15,1 1,6 21 11 42 23 WNW 0,0
10.12.2018 13:00:00 14,9 1,1 18 10 50 27 W -
10.12.2018 12:00:00 14,1 1,4 28 15 54 29 W 0,0
10.12.2018 11:00:00 13,9 0,8 22 12 55 30 W 0,0
10.12.2018 10:00:00 13,2 0,2 26 14 50 27 WNW 0,0
10.12.2018 09:00:00 12,5 -0,4 28 15 59 32 WNW 0,0
10.12.2018 08:00:00 12,0 -0,2 28 15 65 35 WNW 0,0
10.12.2018 07:00:00 11,9 -0,3 29 16 65 35 WNW -
10.12.2018 06:00:00 12,1 1,1 34 18 78 42 W 0,0
10.12.2018 05:00:00 12,2 1,2 29 16 59 32 W 0,0
10.12.2018 04:00:00 12,1 1,4 26 14 50 27 W 0,0
10.12.2018 03:00:00 12,2 1,8 26 14 50 27 WNW 0,0
10.12.2018 02:00:00 12,2 2,1 22 12 57 31 WNW 0,0
10.12.2018 01:00:00 12,1 2,8 28 15 55 30 W -
10.12.2018 00:00:00 11,9 2,6 24 13 54 29 W 0,0
09.12.2018 23:00:00 12,1 2,8 22 12 48 26 W 0,0
09.12.2018 22:00:00 12,4 2,8 22 12 48 26 W 0,0
09.12.2018 21:00:00 12,6 3,5 22 12 50 27 W 0,0
09.12.2018 20:00:00 13,4 2,6 24 13 52 28 W 0,0
09.12.2018 19:00:00 13,7 3,7 22 12 50 27 W -
09.12.2018 18:00:00 13,9 5,0 16 9 34 18 W 0,0
09.12.2018 17:00:00 14,3 5,1 21 11 41 22 W 0,0
09.12.2018 16:00:00 15,8 6,8 22 12 61 33 WNW 0,0
09.12.2018 15:00:00 17,6 5,8 29 16 67 36 W 0,0
09.12.2018 14:00:00 17,3 6,8 24 13 55 30 W 0,0
09.12.2018 13:00:00 16,8 6,9 26 14 67 36 W -
09.12.2018 12:00:00 16,5 6,6 29 16 65 35 W 0,0
09.12.2018 11:00:00 16,5 6,6 34 18 65 35 W 0,0
09.12.2018 10:00:00 15,8 7,8 28 15 59 32 WNW 0,0
09.12.2018 09:00:00 14,8 8,1 24 13 46 25 WNW 0,0
09.12.2018 08:00:00 13,4 6,9 21 11 44 24 WNW 0,0
09.12.2018 07:00:00 13,3 7,3 21 11 46 25 W -
09.12.2018 06:00:00 12,8 7,5 18 10 50 27 W 0,0
09.12.2018 05:00:00 12,8 7,2 22 12 57 31 W 0,0
09.12.2018 04:00:00 12,9 6,5 26 14 61 33 W 0,0
09.12.2018 03:00:00 13,1 6,0 26 14 55 30 W 0,0
09.12.2018 02:00:00 12,7 5,8 24 13 46 25 W 0,0
09.12.2018 01:00:00 12,1 5,5 18 10 42 23 W -
09.12.2018 00:00:00 12,2 5,1 26 14 50 27 W 0,0
08.12.2018 23:00:00 12,1 4,3 24 13 54 29 W 0,0
08.12.2018 22:00:00 12,6 4,3 22 12 44 24 WSW 0,0
08.12.2018 21:00:00 13,1 4,0 18 10 41 22 WSW 0,0
08.12.2018 20:00:00 12,8 2,6 13 7 29 16 WSW 0,0
08.12.2018 19:00:00 12,9 1,8 13 7 29 16 W -
08.12.2018 18:00:00 13,0 1,6 13 7 28 15 W 0,0
08.12.2018 17:00:00 13,4 1,4 11 6 48 26 W 0,0
08.12.2018 16:00:00 14,5 1,0 18 10 50 27 W 0,0
08.12.2018 15:00:00 15,1 0,5 18 10 48 26 W 0,0
08.12.2018 14:00:00 15,0 0,4 22 12 52 28 W 0,0
08.12.2018 13:00:00 14,8 -0,9 18 10 59 32 WNW -
08.12.2018 12:00:00 14,2 0,4 22 12 57 31 W 0,0
08.12.2018 11:00:00 13,8 0,1 16 9 44 24 W 0,0
08.12.2018 10:00:00 12,6 -0,7 16 9 37 20 W 0,0
08.12.2018 09:00:00 11,5 -0,7 18 10 44 24 WNW 0,0
08.12.2018 08:00:00 10,7 -0,5 22 12 50 27 W 0,0
08.12.2018 07:00:00 11,2 -0,6 18 10 61 33 WNW -
08.12.2018 06:00:00 11,6 -1,6 29 16 72 39 WNW 0,0
08.12.2018 05:00:00 11,5 -0,3 24 13 57 31 WNW 0,0
08.12.2018 04:00:00 11,6 0,4 29 16 70 38 W 0,0
08.12.2018 03:00:00 12,7 0,1 35 19 74 40 WNW 0,0
08.12.2018 02:00:00 13,1 0,8 29 16 70 38 WNW 0,0
08.12.2018 01:00:00 13,5 4,6 24 13 55 30 WNW -
08.12.2018 00:00:00 13,3 7,1 21 11 37 20 WNW 0,0
07.12.2018 23:00:00 13,7 6,8 15 8 34 18 WNW 0,0
07.12.2018 22:00:00 13,3 6,2 15 8 34 18 W 0,0
07.12.2018 21:00:00 13,5 6,1 15 8 37 20 WNW 0,0
07.12.2018 20:00:00 13,9 7,0 18 10 35 19 W 0,0
07.12.2018 19:00:00 13,7 7,9 15 8 34 18 W -
07.12.2018 18:00:00 13,7 8,7 15 8 28 15 WNW 0,0
07.12.2018 17:00:00 14,1 9,3 15 8 34 18 W 0,0
07.12.2018 16:00:00 15,4 10,0 16 9 34 18 W 0,0
07.12.2018 15:00:00 16,0 9,9 18 10 37 20 W 0,0
07.12.2018 14:00:00 16,1 10,2 18 10 31 17 W 0,0
07.12.2018 13:00:00 15,8 11,4 13 7 26 14 WSW -
07.12.2018 12:00:00 16,2 11,1 4 2 8 4 SE 0,0
07.12.2018 11:00:00 15,6 11,2 4 2 8 4 ESE 0,0
07.12.2018 10:00:00 12,3 11,0 2 1 8 4 WSW 0,0
07.12.2018 09:00:00 11,4 10,3 0 0 8 4 N 0,0
07.12.2018 08:00:00 10,9 9,8 2 1 5 3 N 0,0
07.12.2018 07:00:00 10,9 9,5 4 2 8 4 ENE -
07.12.2018 06:00:00 10,4 9,5 4 2 11 6 NE 0,0
07.12.2018 05:00:00 10,2 9,4 5 3 9 5 E 0,0
07.12.2018 04:00:00 9,0 8,1 0 0 11 6 N 0,0
07.12.2018 03:00:00 9,8 9,0 4 2 8 4 E 0,0
07.12.2018 02:00:00 9,0 8,1 2 1 8 4 NNW 0,0
07.12.2018 01:00:00 9,0 8,1 0 0 4 2 N -
07.12.2018 00:00:00 9,9 8,8 2 1 8 4 NNW 0,0
06.12.2018 23:00:00 10,5 9,1 4 2 8 4 NW 0,0
06.12.2018 22:00:00 11,1 9,2 2 1 9 5 SW 0,0
06.12.2018 21:00:00 12,5 9,9 4 2 13 7 NNE 0,0
06.12.2018 20:00:00 12,3 9,5 5 3 13 7 N 0,0
06.12.2018 19:00:00 13,2 10,7 4 2 15 8 NNE -

tt = Température de l'air
td = dewpoint
ff = Vitesse du vent
fx = gusts
dd = Direction du vent
rr = Quantités de précipitations

stations d'obs. à proximité